sensor_id;sensor_type;location;lat;lon;timestamp;pressure;altitude;pressure_sealevel;temperature;humidity
64095;BME280;50353;51.420;5.682;2023-09-08T00:01:56;101418.44;;;18.04;88.50
64095;BME280;50353;51.420;5.682;2023-09-08T00:04:22;101411.38;;;18.03;88.87
64095;BME280;50353;51.420;5.682;2023-09-08T00:06:48;101417.38;;;17.96;89.23
64095;BME280;50353;51.420;5.682;2023-09-08T00:09:13;101416.50;;;18.06;88.50
64095;BME280;50353;51.420;5.682;2023-09-08T00:11:38;101400.19;;;18.10;88.53
64095;BME280;50353;51.420;5.682;2023-09-08T00:14:04;101413.88;;;17.61;90.42
64095;BME280;50353;51.420;5.682;2023-09-08T00:16:29;101410.84;;;17.66;91.16
64095;BME280;50353;51.420;5.682;2023-09-08T00:18:56;101412.72;;;17.98;89.76
64095;BME280;50353;51.420;5.682;2023-09-08T00:21:22;101416.38;;;17.85;89.60
64095;BME280;50353;51.420;5.682;2023-09-08T00:23:47;101415.41;;;17.86;89.29
64095;BME280;50353;51.420;5.682;2023-09-08T00:26:12;101418.34;;;17.72;90.73
64095;BME280;50353;51.420;5.682;2023-09-08T00:28:38;101418.16;;;17.52;91.01
64095;BME280;50353;51.420;5.682;2023-09-08T00:31:03;101421.31;;;17.46;91.43
64095;BME280;50353;51.420;5.682;2023-09-08T00:33:30;101430.56;;;17.42;92.55
64095;BME280;50353;51.420;5.682;2023-09-08T00:35:55;101425.44;;;17.62;90.98
64095;BME280;50353;51.420;5.682;2023-09-08T00:38:22;101420.84;;;17.52;91.06
64095;BME280;50353;51.420;5.682;2023-09-08T00:40:47;101417.19;;;17.42;91.83
64095;BME280;50353;51.420;5.682;2023-09-08T00:43:13;101418.56;;;17.25;92.54
64095;BME280;50353;51.420;5.682;2023-09-08T00:45:40;101413.56;;;17.20;92.63
64095;BME280;50353;51.420;5.682;2023-09-08T00:48:07;101419.88;;;17.31;92.29
64095;BME280;50353;51.420;5.682;2023-09-08T00:50:33;101411.13;;;17.29;92.35
64095;BME280;50353;51.420;5.682;2023-09-08T00:52:59;101416.94;;;17.34;91.65
64095;BME280;50353;51.420;5.682;2023-09-08T00:55:24;101413.09;;;17.15;92.75
64095;BME280;50353;51.420;5.682;2023-09-08T00:57:50;101416.13;;;17.22;92.85
64095;BME280;50353;51.420;5.682;2023-09-08T01:00:15;101413.91;;;17.27;92.29
64095;BME280;50353;51.420;5.682;2023-09-08T01:02:41;101411.13;;;17.29;92.90
64095;BME280;50353;51.420;5.682;2023-09-08T01:05:06;101397.91;;;17.16;93.02
64095;BME280;50353;51.420;5.682;2023-09-08T01:07:32;101398.28;;;17.11;93.09
64095;BME280;50353;51.420;5.682;2023-09-08T01:09:57;101405.91;;;17.16;93.09
64095;BME280;50353;51.420;5.682;2023-09-08T01:12:28;101395.81;;;16.97;92.93
64095;BME280;50353;51.420;5.682;2023-09-08T01:14:54;101399.19;;;16.87;93.33
64095;BME280;50353;51.420;5.682;2023-09-08T01:17:19;101396.00;;;16.82;94.51
64095;BME280;50353;51.420;5.682;2023-09-08T01:19:45;101400.47;;;16.95;94.29
64095;BME280;50353;51.420;5.682;2023-09-08T01:22:23;101407.19;;;16.87;94.43
64095;BME280;50353;51.420;5.682;2023-09-08T01:27:32;101397.72;;;16.83;93.01
64095;BME280;50353;51.420;5.682;2023-09-08T01:29:59;101412.53;;;16.87;93.69
64095;BME280;50353;51.420;5.682;2023-09-08T01:32:25;101413.75;;;16.83;93.61
64095;BME280;50353;51.420;5.682;2023-09-08T01:34:52;101405.13;;;16.80;94.24
64095;BME280;50353;51.420;5.682;2023-09-08T01:37:17;101410.31;;;16.70;94.16
64095;BME280;50353;51.420;5.682;2023-09-08T01:39:42;101412.50;;;16.65;95.22
64095;BME280;50353;51.420;5.682;2023-09-08T01:42:08;101410.16;;;16.96;94.01
64095;BME280;50353;51.420;5.682;2023-09-08T01:44:33;101407.31;;;16.75;94.96
64095;BME280;50353;51.420;5.682;2023-09-08T01:46:59;101407.66;;;16.70;95.70
64095;BME280;50353;51.420;5.682;2023-09-08T01:49:24;101409.47;;;16.69;95.27
64095;BME280;50353;51.420;5.682;2023-09-08T01:51:49;101407.44;;;16.73;95.23
64095;BME280;50353;51.420;5.682;2023-09-08T01:54:15;101410.00;;;16.86;94.81
64095;BME280;50353;51.420;5.682;2023-09-08T01:56:41;101405.72;;;16.72;95.21
64095;BME280;50353;51.420;5.682;2023-09-08T01:59:06;101401.09;;;16.74;95.04
64095;BME280;50353;51.420;5.682;2023-09-08T02:01:31;101402.03;;;16.50;95.72
64095;BME280;50353;51.420;5.682;2023-09-08T02:03:56;101401.59;;;16.68;95.23
64095;BME280;50353;51.420;5.682;2023-09-08T02:06:22;101396.13;;;16.58;95.54
64095;BME280;50353;51.420;5.682;2023-09-08T02:08:47;101404.69;;;16.50;95.88
64095;BME280;50353;51.420;5.682;2023-09-08T02:11:12;101400.00;;;16.65;95.32
64095;BME280;50353;51.420;5.682;2023-09-08T02:13:39;101398.28;;;16.53;94.97
64095;BME280;50353;51.420;5.682;2023-09-08T02:16:04;101395.72;;;16.51;96.43
64095;BME280;50353;51.420;5.682;2023-09-08T02:18:29;101392.84;;;16.66;96.00
64095;BME280;50353;51.420;5.682;2023-09-08T02:20:54;101392.25;;;16.62;93.77
64095;BME280;50353;51.420;5.682;2023-09-08T02:23:20;101395.72;;;16.51;95.69
64095;BME280;50353;51.420;5.682;2023-09-08T02:25:45;101397.78;;;16.48;95.62
64095;BME280;50353;51.420;5.682;2023-09-08T02:28:10;101395.69;;;16.40;95.58
64095;BME280;50353;51.420;5.682;2023-09-08T02:30:35;101393.19;;;16.50;95.87
64095;BME280;50353;51.420;5.682;2023-09-08T02:33:02;101395.22;;;16.46;95.91
64095;BME280;50353;51.420;5.682;2023-09-08T02:35:28;101398.06;;;16.20;96.61
64095;BME280;50353;51.420;5.682;2023-09-08T02:37:53;101395.22;;;16.35;95.93
64095;BME280;50353;51.420;5.682;2023-09-08T02:40:18;101392.88;;;16.30;95.85
64095;BME280;50353;51.420;5.682;2023-09-08T02:42:45;101392.19;;;16.39;95.80
64095;BME280;50353;51.420;5.682;2023-09-08T02:45:11;101396.53;;;16.29;95.77
64095;BME280;50353;51.420;5.682;2023-09-08T02:47:36;101396.59;;;16.16;96.42
64095;BME280;50353;51.420;5.682;2023-09-08T02:50:01;101395.00;;;16.14;96.54
64095;BME280;50353;51.420;5.682;2023-09-08T02:52:28;101396.59;;;16.16;96.87
64095;BME280;50353;51.420;5.682;2023-09-08T02:54:53;101397.94;;;16.22;96.66
64095;BME280;50353;51.420;5.682;2023-09-08T02:57:18;101402.47;;;16.33;96.16
64095;BME280;50353;51.420;5.682;2023-09-08T02:59:49;101400.09;;;16.17;96.61
64095;BME280;50353;51.420;5.682;2023-09-08T03:02:14;101400.69;;;16.09;96.78
64095;BME280;50353;51.420;5.682;2023-09-08T03:04:39;101392.31;;;16.14;97.27
64095;BME280;50353;51.420;5.682;2023-09-08T03:07:05;101395.75;;;16.16;97.14
64095;BME280;50353;51.420;5.682;2023-09-08T03:09:30;101393.41;;;16.11;96.64
64095;BME280;50353;51.420;5.682;2023-09-08T03:11:55;101391.25;;;15.92;97.38
64095;BME280;50353;51.420;5.682;2023-09-08T03:14:20;101398.19;;;15.95;96.58
64095;BME280;50353;51.420;5.682;2023-09-08T03:16:46;101385.63;;;16.08;97.38
64095;BME280;50353;51.420;5.682;2023-09-08T03:19:11;101391.09;;;16.07;97.54
64095;BME280;50353;51.420;5.682;2023-09-08T03:21:36;101389.91;;;16.11;97.64
64095;BME280;50353;51.420;5.682;2023-09-08T03:24:01;101391.94;;;16.07;97.95
64095;BME280;50353;51.420;5.682;2023-09-08T03:26:27;101391.22;;;16.05;96.72
64095;BME280;50353;51.420;5.682;2023-09-08T03:28:52;101394.28;;;15.87;97.58
64095;BME280;50353;51.420;5.682;2023-09-08T03:31:17;101397.19;;;15.71;98.21
64095;BME280;50353;51.420;5.682;2023-09-08T03:33:43;101388.63;;;15.79;98.51
64095;BME280;50353;51.420;5.682;2023-09-08T03:36:08;101381.94;;;15.98;97.54
64095;BME280;50353;51.420;5.682;2023-09-08T03:38:33;101383.72;;;16.10;96.60
64095;BME280;50353;51.420;5.682;2023-09-08T03:41:01;101386.00;;;16.03;96.47
64095;BME280;50353;51.420;5.682;2023-09-08T03:43:27;101389.91;;;15.86;96.82
64095;BME280;50353;51.420;5.682;2023-09-08T03:45:52;101382.91;;;15.60;97.77
64095;BME280;50353;51.420;5.682;2023-09-08T03:48:17;101386.50;;;15.71;98.01
64095;BME280;50353;51.420;5.682;2023-09-08T03:50:42;101389.28;;;15.70;98.04
64095;BME280;50353;51.420;5.682;2023-09-08T03:53:10;101388.75;;;15.78;98.24
64095;BME280;50353;51.420;5.682;2023-09-08T03:55:36;101390.53;;;15.90;98.10
64095;BME280;50353;51.420;5.682;2023-09-08T03:58:01;101387.47;;;15.83;98.65
64095;BME280;50353;51.420;5.682;2023-09-08T04:00:27;101382.78;;;15.74;97.37
64095;BME280;50353;51.420;5.682;2023-09-08T04:02:52;101378.97;;;15.65;98.63
64095;BME280;50353;51.420;5.682;2023-09-08T04:05:17;101379.75;;;15.79;98.68
64095;BME280;50353;51.420;5.682;2023-09-08T04:07:44;101380.47;;;15.94;98.22
64095;BME280;50353;51.420;5.682;2023-09-08T04:10:09;101385.56;;;15.72;98.66
64095;BME280;50353;51.420;5.682;2023-09-08T04:12:35;101380.44;;;15.82;97.44
64095;BME280;50353;51.420;5.682;2023-09-08T04:15:00;101386.63;;;15.70;96.99
64095;BME280;50353;51.420;5.682;2023-09-08T04:17:25;101382.59;;;15.64;97.84
64095;BME280;50353;51.420;5.682;2023-09-08T04:19:51;101385.09;;;15.79;97.79
64095;BME280;50353;51.420;5.682;2023-09-08T04:22:16;101383.44;;;15.65;99.08
64095;BME280;50353;51.420;5.682;2023-09-08T04:24:41;101385.16;;;15.66;98.57
64095;BME280;50353;51.420;5.682;2023-09-08T04:27:07;101379.94;;;15.64;98.58
64095;BME280;50353;51.420;5.682;2023-09-08T04:29:34;101380.66;;;15.42;99.07
64095;BME280;50353;51.420;5.682;2023-09-08T04:31:59;101380.91;;;15.63;97.64
64095;BME280;50353;51.420;5.682;2023-09-08T04:34:24;101381.38;;;15.44;98.85
64095;BME280;50353;51.420;5.682;2023-09-08T04:36:50;101372.25;;;15.60;98.90
64095;BME280;50353;51.420;5.682;2023-09-08T04:39:15;101372.78;;;15.65;98.56
64095;BME280;50353;51.420;5.682;2023-09-08T04:41:41;101378.09;;;15.78;98.25
64095;BME280;50353;51.420;5.682;2023-09-08T04:44:06;101374.53;;;15.77;97.56
64095;BME280;50353;51.420;5.682;2023-09-08T04:46:31;101382.25;;;15.69;98.99
64095;BME280;50353;51.420;5.682;2023-09-08T04:48:57;101376.88;;;15.58;99.16
64095;BME280;50353;51.420;5.682;2023-09-08T04:51:22;101375.09;;;15.45;98.52
64095;BME280;50353;51.420;5.682;2023-09-08T04:53:47;101377.88;;;15.44;99.24
64095;BME280;50353;51.420;5.682;2023-09-08T04:56:13;101378.72;;;15.44;98.69
64095;BME280;50353;51.420;5.682;2023-09-08T04:58:39;101377.88;;;15.44;98.85
64095;BME280;50353;51.420;5.682;2023-09-08T05:01:04;101379.13;;;15.51;99.38
64095;BME280;50353;51.420;5.682;2023-09-08T05:03:30;101379.81;;;15.29;99.44
64095;BME280;50353;51.420;5.682;2023-09-08T05:05:56;101385.22;;;15.53;98.61
64095;BME280;50353;51.420;5.682;2023-09-08T05:08:21;101381.84;;;15.38;99.53
64095;BME280;50353;51.420;5.682;2023-09-08T05:10:46;101384.38;;;15.40;99.40
64095;BME280;50353;51.420;5.682;2023-09-08T05:13:11;101387.59;;;15.32;99.16
64095;BME280;50353;51.420;5.682;2023-09-08T05:15:37;101384.69;;;15.35;99.65
64095;BME280;50353;51.420;5.682;2023-09-08T05:18:04;101382.56;;;15.40;99.89
64095;BME280;50353;51.420;5.682;2023-09-08T05:20:29;101386.09;;;15.41;100.00
64095;BME280;50353;51.420;5.682;2023-09-08T05:22:55;101389.44;;;15.55;99.90
64095;BME280;50353;51.420;5.682;2023-09-08T05:25:20;101385.41;;;15.50;99.94
64095;BME280;50353;51.420;5.682;2023-09-08T05:27:45;101391.25;;;15.55;98.69
64095;BME280;50353;51.420;5.682;2023-09-08T05:30:11;101394.28;;;15.50;99.60
64095;BME280;50353;51.420;5.682;2023-09-08T05:32:36;101391.91;;;15.46;99.72
64095;BME280;50353;51.420;5.682;2023-09-08T05:35:02;101394.16;;;15.39;100.00
64095;BME280;50353;51.420;5.682;2023-09-08T05:37:27;101395.34;;;15.48;100.00
64095;BME280;50353;51.420;5.682;2023-09-08T05:39:53;101393.19;;;15.53;100.00
64095;BME280;50353;51.420;5.682;2023-09-08T05:42:18;101395.94;;;15.64;100.00
64095;BME280;50353;51.420;5.682;2023-09-08T05:44:43;101393.91;;;15.68;100.00
64095;BME280;50353;51.420;5.682;2023-09-08T05:47:10;101392.25;;;15.78;100.00
64095;BME280;50353;51.420;5.682;2023-09-08T05:49:35;101396.94;;;16.12;99.79
64095;BME280;50353;51.420;5.682;2023-09-08T05:52:00;101395.25;;;16.22;99.19
64095;BME280;50353;51.420;5.682;2023-09-08T05:54:26;101399.13;;;16.53;98.85
64095;BME280;50353;51.420;5.682;2023-09-08T05:56:51;101401.72;;;16.66;97.76
64095;BME280;50353;51.420;5.682;2023-09-08T05:59:16;101396.63;;;16.75;97.34
64095;BME280;50353;51.420;5.682;2023-09-08T06:01:42;101400.38;;;16.72;98.21
64095;BME280;50353;51.420;5.682;2023-09-08T06:04:07;101407.97;;;17.01;97.50
64095;BME280;50353;51.420;5.682;2023-09-08T06:06:32;101405.56;;;17.32;97.34
64095;BME280;50353;51.420;5.682;2023-09-08T06:08:58;101406.13;;;17.58;95.52
64095;BME280;50353;51.420;5.682;2023-09-08T06:11:23;101410.53;;;18.03;92.95
64095;BME280;50353;51.420;5.682;2023-09-08T06:13:49;101414.13;;;18.67;89.91
64095;BME280;50353;51.420;5.682;2023-09-08T06:16:14;101411.03;;;18.71;91.13
64095;BME280;50353;51.420;5.682;2023-09-08T06:18:39;101407.06;;;19.18;89.37
64095;BME280;50353;51.420;5.682;2023-09-08T06:21:09;101416.25;;;19.25;87.89
64095;BME280;50353;51.420;5.682;2023-09-08T06:23:35;101404.06;;;19.42;87.03
64095;BME280;50353;51.420;5.682;2023-09-08T06:26:00;101416.06;;;19.98;84.79
64095;BME280;50353;51.420;5.682;2023-09-08T06:28:29;101410.97;;;20.05;84.32
64095;BME280;50353;51.420;5.682;2023-09-08T06:30:55;101415.34;;;20.35;83.12
64095;BME280;50353;51.420;5.682;2023-09-08T06:33:20;101414.91;;;20.69;81.74
64095;BME280;50353;51.420;5.682;2023-09-08T06:35:47;101408.13;;;21.13;78.85
64095;BME280;50353;51.420;5.682;2023-09-08T06:38:13;101416.22;;;21.03;77.57
64095;BME280;50353;51.420;5.682;2023-09-08T06:40:38;101422.28;;;21.15;77.21
64095;BME280;50353;51.420;5.682;2023-09-08T06:43:03;101418.84;;;21.22;77.42
64095;BME280;50353;51.420;5.682;2023-09-08T06:45:29;101418.22;;;21.66;75.79
64095;BME280;50353;51.420;5.682;2023-09-08T06:47:54;101417.47;;;21.46;75.57
64095;BME280;50353;51.420;5.682;2023-09-08T06:50:23;101422.50;;;21.59;76.32
64095;BME280;50353;51.420;5.682;2023-09-08T06:52:49;101421.63;;;21.86;74.11
64095;BME280;50353;51.420;5.682;2023-09-08T06:55:15;101425.94;;;22.15;72.38
64095;BME280;50353;51.420;5.682;2023-09-08T06:57:44;101426.41;;;22.28;71.52
64095;BME280;50353;51.420;5.682;2023-09-08T07:00:10;101438.28;;;22.54;71.62
64095;BME280;50353;51.420;5.682;2023-09-08T07:02:37;101428.72;;;22.59;70.97
64095;BME280;50353;51.420;5.682;2023-09-08T07:05:02;101429.56;;;23.12;69.14
64095;BME280;50353;51.420;5.682;2023-09-08T07:07:32;101432.28;;;22.94;70.11
64095;BME280;50353;51.420;5.682;2023-09-08T07:09:58;101430.88;;;23.08;69.89
64095;BME280;50353;51.420;5.682;2023-09-08T07:12:23;101429.53;;;23.47;69.93
64095;BME280;50353;51.420;5.682;2023-09-08T07:14:48;101429.84;;;23.36;70.34
64095;BME280;50353;51.420;5.682;2023-09-08T07:17:13;101423.66;;;23.52;68.92
64095;BME280;50353;51.420;5.682;2023-09-08T07:19:39;101431.13;;;23.66;67.80
64095;BME280;50353;51.420;5.682;2023-09-08T07:22:04;101429.72;;;24.13;66.47
64095;BME280;50353;51.420;5.682;2023-09-08T07:24:31;101428.28;;;23.76;69.05
64095;BME280;50353;51.420;5.682;2023-09-08T07:26:56;101428.25;;;23.68;69.19
64095;BME280;50353;51.420;5.682;2023-09-08T07:29:21;101435.38;;;23.77;67.22
64095;BME280;50353;51.420;5.682;2023-09-08T07:31:46;101442.66;;;23.85;67.40
64095;BME280;50353;51.420;5.682;2023-09-08T07:34:12;101438.09;;;23.85;68.59
64095;BME280;50353;51.420;5.682;2023-09-08T07:36:37;101429.53;;;24.14;66.91
64095;BME280;50353;51.420;5.682;2023-09-08T07:39:02;101431.75;;;24.27;66.33
64095;BME280;50353;51.420;5.682;2023-09-08T07:41:28;101431.22;;;24.57;65.34
64095;BME280;50353;51.420;5.682;2023-09-08T07:43:53;101421.44;;;24.80;65.60
64095;BME280;50353;51.420;5.682;2023-09-08T07:46:18;101431.09;;;24.50;65.50
64095;BME280;50353;51.420;5.682;2023-09-08T07:48:44;101433.91;;;24.98;63.23
64095;BME280;50353;51.420;5.682;2023-09-08T07:51:09;101430.84;;;25.09;63.81
64095;BME280;50353;51.420;5.682;2023-09-08T07:53:34;101436.78;;;25.53;62.20
64095;BME280;50353;51.420;5.682;2023-09-08T07:56:00;101430.25;;;25.39;63.20
64095;BME280;50353;51.420;5.682;2023-09-08T07:58:26;101424.06;;;25.13;65.09
64095;BME280;50353;51.420;5.682;2023-09-08T08:00:51;101428.75;;;25.68;61.36
64095;BME280;50353;51.420;5.682;2023-09-08T08:03:17;101432.63;;;25.73;60.91
64095;BME280;50353;51.420;5.682;2023-09-08T08:05:42;101430.03;;;26.11;61.30
64095;BME280;50353;51.420;5.682;2023-09-08T08:08:07;101437.34;;;26.03;60.20
64095;BME280;50353;51.420;5.682;2023-09-08T08:10:34;101428.81;;;26.14;60.84
64095;BME280;50353;51.420;5.682;2023-09-08T08:13:00;101435.97;;;26.30;60.52
64095;BME280;50353;51.420;5.682;2023-09-08T08:15:38;101425.78;;;26.32;62.02
64095;BME280;50353;51.420;5.682;2023-09-08T08:18:05;101438.06;;;26.43;59.48
64095;BME280;50353;51.420;5.682;2023-09-08T08:20:30;101444.25;;;26.90;58.52
64095;BME280;50353;51.420;5.682;2023-09-08T08:22:59;101440.22;;;27.15;57.83
64095;BME280;50353;51.420;5.682;2023-09-08T08:25:25;101438.72;;;26.98;59.11
64095;BME280;50353;51.420;5.682;2023-09-08T08:27:50;101439.19;;;26.48;62.30
64095;BME280;50353;51.420;5.682;2023-09-08T08:30:15;101436.56;;;26.40;62.72
64095;BME280;50353;51.420;5.682;2023-09-08T08:32:41;101434.34;;;26.82;61.50
64095;BME280;50353;51.420;5.682;2023-09-08T08:35:06;101428.63;;;27.52;59.13
64095;BME280;50353;51.420;5.682;2023-09-08T08:37:32;101431.50;;;28.02;56.17
64095;BME280;50353;51.420;5.682;2023-09-08T08:39:57;101431.44;;;27.58;56.35
64095;BME280;50353;51.420;5.682;2023-09-08T08:42:22;101433.56;;;27.63;59.48
64095;BME280;50353;51.420;5.682;2023-09-08T08:44:48;101434.66;;;28.05;57.11
64095;BME280;50353;51.420;5.682;2023-09-08T08:47:13;101434.06;;;28.10;57.01
64095;BME280;50353;51.420;5.682;2023-09-08T08:49:42;101437.22;;;28.57;54.46
64095;BME280;50353;51.420;5.682;2023-09-08T08:52:08;101433.56;;;28.43;54.86
64095;BME280;50353;51.420;5.682;2023-09-08T08:54:45;101438.59;;;28.46;55.06
64095;BME280;50353;51.420;5.682;2023-09-08T08:57:11;101429.88;;;28.79;53.95
64095;BME280;50353;51.420;5.682;2023-09-08T08:59:36;101429.19;;;28.70;56.28
64095;BME280;50353;51.420;5.682;2023-09-08T09:02:02;101432.84;;;28.84;55.04
64095;BME280;50353;51.420;5.682;2023-09-08T09:04:31;101437.41;;;28.83;50.65
64095;BME280;50353;51.420;5.682;2023-09-08T09:06:57;101418.41;;;28.33;55.75
64095;BME280;50353;51.420;5.682;2023-09-08T09:09:26;101426.59;;;28.62;54.08
64095;BME280;50353;51.420;5.682;2023-09-08T09:11:51;101436.59;;;28.61;55.16
64095;BME280;50353;51.420;5.682;2023-09-08T09:14:16;101434.31;;;28.37;55.99
64095;BME280;50353;51.420;5.682;2023-09-08T09:16:45;101428.78;;;29.50;50.70
64095;BME280;50353;51.420;5.682;2023-09-08T09:19:18;101433.38;;;28.73;54.49
64095;BME280;50353;51.420;5.682;2023-09-08T09:21:47;101433.59;;;29.41;51.24
64095;BME280;50353;51.420;5.682;2023-09-08T09:24:17;101434.47;;;29.55;50.27
64095;BME280;50353;51.420;5.682;2023-09-08T09:26:53;101436.34;;;29.61;48.87
64095;BME280;50353;51.420;5.682;2023-09-08T09:29:18;101443.63;;;29.96;47.31
64095;BME280;50353;51.420;5.682;2023-09-08T09:31:57;101429.69;;;29.71;48.66
64095;BME280;50353;51.420;5.682;2023-09-08T09:34:23;101438.75;;;29.78;47.67
64095;BME280;50353;51.420;5.682;2023-09-08T09:36:49;101446.16;;;30.11;47.60
64095;BME280;50353;51.420;5.682;2023-09-08T09:39:19;101435.53;;;29.61;47.41
64095;BME280;50353;51.420;5.682;2023-09-08T09:41:46;101433.47;;;29.63;48.56
64095;BME280;50353;51.420;5.682;2023-09-08T09:44:12;101441.50;;;29.91;46.73
64095;BME280;50353;51.420;5.682;2023-09-08T09:46:37;101445.97;;;30.19;49.35
64095;BME280;50353;51.420;5.682;2023-09-08T09:49:03;101448.69;;;30.19;49.09
64095;BME280;50353;51.420;5.682;2023-09-08T09:51:29;101442.63;;;30.44;47.83
64095;BME280;50353;51.420;5.682;2023-09-08T09:53:55;101442.78;;;30.09;46.68
64095;BME280;50353;51.420;5.682;2023-09-08T09:56:22;101442.88;;;30.49;47.17
64095;BME280;50353;51.420;5.682;2023-09-08T09:58:49;101436.72;;;30.33;46.71
64095;BME280;50353;51.420;5.682;2023-09-08T10:01:15;101437.38;;;30.69;46.58
64095;BME280;50353;51.420;5.682;2023-09-08T10:03:42;101437.81;;;30.32;48.22
64095;BME280;50353;51.420;5.682;2023-09-08T10:06:08;101433.59;;;30.70;47.32
64095;BME280;50353;51.420;5.682;2023-09-08T10:08:34;101440.31;;;30.54;46.77
64095;BME280;50353;51.420;5.682;2023-09-08T10:11:07;101429.19;;;30.42;47.35
64095;BME280;50353;51.420;5.682;2023-09-08T10:13:38;101425.84;;;30.67;47.03
64095;BME280;50353;51.420;5.682;2023-09-08T10:16:05;101429.75;;;31.11;45.46
64095;BME280;50353;51.420;5.682;2023-09-08T10:18:33;101437.81;;;30.46;47.93
64095;BME280;50353;51.420;5.682;2023-09-08T10:21:03;101433.13;;;31.07;47.07
64095;BME280;50353;51.420;5.682;2023-09-08T10:23:39;101434.41;;;30.77;50.95
64095;BME280;50353;51.420;5.682;2023-09-08T10:26:10;101427.38;;;31.28;46.29
64095;BME280;50353;51.420;5.682;2023-09-08T10:28:36;101433.06;;;31.27;46.93
64095;BME280;50353;51.420;5.682;2023-09-08T10:31:02;101428.66;;;31.19;47.37
64095;BME280;50353;51.420;5.682;2023-09-08T10:33:29;101431.81;;;31.23;47.39
64095;BME280;50353;51.420;5.682;2023-09-08T10:35:55;101434.06;;;31.39;46.37
64095;BME280;50353;51.420;5.682;2023-09-08T10:40:48;101425.38;;;30.90;46.56
64095;BME280;50353;51.420;5.682;2023-09-08T10:43:14;101418.13;;;31.36;45.99
64095;BME280;50353;51.420;5.682;2023-09-08T10:45:40;101423.47;;;31.04;47.46
64095;BME280;50353;51.420;5.682;2023-09-08T10:48:07;101412.03;;;31.73;47.85
64095;BME280;50353;51.420;5.682;2023-09-08T10:50:34;101414.94;;;31.39;47.66
64095;BME280;50353;51.420;5.682;2023-09-08T10:53:14;101417.13;;;31.17;48.28
64095;BME280;50353;51.420;5.682;2023-09-08T10:55:47;101419.00;;;31.16;48.43
64095;BME280;50353;51.420;5.682;2023-09-08T10:58:34;101417.94;;;31.69;46.58
64095;BME280;50353;51.420;5.682;2023-09-08T11:01:02;101417.44;;;31.86;47.71
64095;BME280;50353;51.420;5.682;2023-09-08T11:06:06;101418.19;;;31.68;47.84
64095;BME280;50353;51.420;5.682;2023-09-08T11:08:41;101420.75;;;31.95;45.54
64095;BME280;50353;51.420;5.682;2023-09-08T11:11:07;101423.91;;;31.92;45.89
64095;BME280;50353;51.420;5.682;2023-09-08T11:13:33;101422.53;;;32.08;45.51
64095;BME280;50353;51.420;5.682;2023-09-08T11:15:58;101423.81;;;31.28;48.23
64095;BME280;50353;51.420;5.682;2023-09-08T11:18:30;101420.59;;;31.44;48.84
64095;BME280;50353;51.420;5.682;2023-09-08T11:20:56;101411.25;;;31.65;47.96
64095;BME280;50353;51.420;5.682;2023-09-08T11:23:22;101416.16;;;31.89;49.27
64095;BME280;50353;51.420;5.682;2023-09-08T11:25:49;101421.13;;;31.98;46.29
64095;BME280;50353;51.420;5.682;2023-09-08T11:28:16;101421.31;;;32.03;47.11
64095;BME280;50353;51.420;5.682;2023-09-08T11:30:41;101422.88;;;32.25;46.61
64095;BME280;50353;51.420;5.682;2023-09-08T11:33:17;101416.81;;;31.84;47.82
64095;BME280;50353;51.420;5.682;2023-09-08T11:35:45;101411.84;;;31.74;45.33
64095;BME280;50353;51.420;5.682;2023-09-08T11:38:11;101417.66;;;31.84;47.02
64095;BME280;50353;51.420;5.682;2023-09-08T11:40:37;101417.00;;;32.21;46.72
64095;BME280;50353;51.420;5.682;2023-09-08T11:43:03;101408.63;;;31.84;47.75
64095;BME280;50353;51.420;5.682;2023-09-08T11:45:30;101400.84;;;31.42;46.07
64095;BME280;50353;51.420;5.682;2023-09-08T11:47:57;101407.75;;;31.83;47.50
64095;BME280;50353;51.420;5.682;2023-09-08T11:50:23;101407.78;;;32.15;43.32
64095;BME280;50353;51.420;5.682;2023-09-08T11:52:50;101396.75;;;31.97;48.79
64095;BME280;50353;51.420;5.682;2023-09-08T11:55:16;101407.81;;;32.34;45.92
64095;BME280;50353;51.420;5.682;2023-09-08T11:57:43;101397.56;;;32.29;46.00
64095;BME280;50353;51.420;5.682;2023-09-08T12:00:10;101406.81;;;32.28;46.31
64095;BME280;50353;51.420;5.682;2023-09-08T12:02:39;101408.50;;;32.55;47.50
64095;BME280;50353;51.420;5.682;2023-09-08T12:05:05;101399.91;;;32.69;45.01
64095;BME280;50353;51.420;5.682;2023-09-08T12:07:30;101402.59;;;32.32;45.39
64095;BME280;50353;51.420;5.682;2023-09-08T12:09:56;101399.41;;;32.35;46.17
64095;BME280;50353;51.420;5.682;2023-09-08T12:12:25;101404.38;;;32.64;46.28
64095;BME280;50353;51.420;5.682;2023-09-08T12:14:51;101403.88;;;32.30;43.79
64095;BME280;50353;51.420;5.682;2023-09-08T12:17:16;101403.81;;;32.36;46.95
64095;BME280;50353;51.420;5.682;2023-09-08T12:19:43;101406.22;;;32.26;44.28
64095;BME280;50353;51.420;5.682;2023-09-08T12:22:08;101404.44;;;32.57;45.16
64095;BME280;50353;51.420;5.682;2023-09-08T12:27:22;101405.53;;;32.56;45.82
64095;BME280;50353;51.420;5.682;2023-09-08T12:30:00;101403.75;;;32.43;45.16
64095;BME280;50353;51.420;5.682;2023-09-08T12:32:28;101401.53;;;32.33;44.37
64095;BME280;50353;51.420;5.682;2023-09-08T12:34:53;101406.47;;;32.25;46.78
64095;BME280;50353;51.420;5.682;2023-09-08T12:37:21;101403.91;;;32.48;44.20
64095;BME280;50353;51.420;5.682;2023-09-08T12:39:46;101402.69;;;32.19;47.20
64095;BME280;50353;51.420;5.682;2023-09-08T12:42:12;101397.91;;;32.40;44.14
64095;BME280;50353;51.420;5.682;2023-09-08T12:44:37;101397.38;;;31.99;43.83
64095;BME280;50353;51.420;5.682;2023-09-08T12:47:03;101396.81;;;32.41;45.47
64095;BME280;50353;51.420;5.682;2023-09-08T12:49:28;101397.44;;;32.43;45.07
64095;BME280;50353;51.420;5.682;2023-09-08T12:51:53;101394.72;;;32.43;45.24
64095;BME280;50353;51.420;5.682;2023-09-08T12:54:18;101397.63;;;32.48;45.39
64095;BME280;50353;51.420;5.682;2023-09-08T12:56:44;101395.94;;;32.65;46.43